createdAt,value
2019-05-20T00:02:30.423Z,12.87
2019-05-20T00:04:59.496Z,13.60
2019-05-20T00:07:28.750Z,12.87
2019-05-20T00:09:57.899Z,12.83
2019-05-20T00:12:26.982Z,12.77
2019-05-20T00:14:56.136Z,13.50
2019-05-20T00:17:25.159Z,13.10
2019-05-20T00:19:54.170Z,13.43
2019-05-20T00:22:23.253Z,13.43
2019-05-20T00:24:52.345Z,14.20
2019-05-20T00:27:21.464Z,13.50
2019-05-20T00:29:50.584Z,13.60
2019-05-20T00:32:19.840Z,13.53
2019-05-20T00:34:48.936Z,13.50
2019-05-20T00:37:17.993Z,13.97
2019-05-20T00:39:47.090Z,13.47
2019-05-20T00:42:16.361Z,14.23
2019-05-20T00:44:45.422Z,13.13
2019-05-20T00:47:14.485Z,14.23
2019-05-20T00:49:43.601Z,12.83
2019-05-20T00:52:12.888Z,13.17
2019-05-20T00:54:42.116Z,13.87
2019-05-20T00:57:11.044Z,13.93
2019-05-20T00:59:40.171Z,13.47
2019-05-20T01:02:09.343Z,12.87
2019-05-20T01:04:38.459Z,14.23
2019-05-20T01:07:07.573Z,12.80
2019-05-20T01:09:36.769Z,13.03
2019-05-20T01:12:05.856Z,13.07
2019-05-20T01:14:35.037Z,12.30
2019-05-20T01:17:04.171Z,23.27
2019-05-20T01:19:33.247Z,16.43
2019-05-20T01:22:02.257Z,13.43
2019-05-20T01:24:31.271Z,13.93
2019-05-20T01:27:00.472Z,13.00
2019-05-20T01:29:29.720Z,13.40
2019-05-20T01:31:58.814Z,13.50
2019-05-20T01:34:28.080Z,12.33
2019-05-20T01:36:57.004Z,13.77
2019-05-20T01:39:26.135Z,13.70
2019-05-20T01:41:55.130Z,13.73
2019-05-20T01:44:24.091Z,13.17
2019-05-20T01:46:53.438Z,13.47
2019-05-20T01:49:22.472Z,14.63
2019-05-20T01:51:51.505Z,14.70
2019-05-20T01:54:20.581Z,14.80
2019-05-20T01:56:49.648Z,14.40
2019-05-20T01:59:18.627Z,14.80
2019-05-20T02:01:47.638Z,13.87
2019-05-20T02:04:16.664Z,12.13
2019-05-20T02:06:45.599Z,13.17
2019-05-20T02:09:14.787Z,13.37
2019-05-20T02:11:43.961Z,13.87
2019-05-20T02:14:17.792Z,13.53
2019-05-20T02:16:46.852Z,13.70
2019-05-20T02:19:16.029Z,13.13
2019-05-20T02:21:45.125Z,13.37
2019-05-20T02:24:14.509Z,13.33
2019-05-20T02:26:43.415Z,13.10
2019-05-20T02:29:12.341Z,13.57
2019-05-20T02:31:41.331Z,13.70
2019-05-20T02:34:10.446Z,13.43
2019-05-20T02:36:39.562Z,13.40
2019-05-20T02:39:08.704Z,13.50
2019-05-20T02:41:37.828Z,13.20
2019-05-20T02:44:06.980Z,13.60
2019-05-20T02:46:36.154Z,13.77
2019-05-20T02:49:05.291Z,13.67
2019-05-20T02:51:34.317Z,14.70
2019-05-20T02:54:03.471Z,14.37
2019-05-20T02:56:32.761Z,13.70
2019-05-20T02:59:02.104Z,15.00
2019-05-20T03:01:31.213Z,14.20
2019-05-20T03:04:11.724Z,14.27
2019-05-20T03:06:30.933Z,14.67
2019-05-20T03:08:59.901Z,13.97
2019-05-20T03:11:28.949Z,13.90
2019-05-20T03:13:58.096Z,13.80
2019-05-20T03:16:27.256Z,13.27
2019-05-20T03:18:56.261Z,13.70
2019-05-20T03:21:25.233Z,13.70
2019-05-20T03:23:54.272Z,14.40
2019-05-20T03:26:23.326Z,14.57
2019-05-20T03:28:52.322Z,14.30
2019-05-20T03:31:21.343Z,13.47
2019-05-20T03:33:50.448Z,14.00
2019-05-20T03:36:19.449Z,14.03
2019-05-20T03:38:48.475Z,14.03
2019-05-20T03:41:17.701Z,14.17
2019-05-20T03:43:47.131Z,14.37
2019-05-20T03:46:16.143Z,14.67
2019-05-20T03:48:45.110Z,14.50
2019-05-20T03:51:14.261Z,14.97
2019-05-20T03:53:43.261Z,13.77
2019-05-20T03:56:12.323Z,14.57
2019-05-20T03:58:41.387Z,15.30
2019-05-20T04:01:10.389Z,14.60
2019-05-20T04:03:39.417Z,14.27
2019-05-20T04:06:08.686Z,14.90
2019-05-20T04:08:37.971Z,14.40
2019-05-20T04:11:07.114Z,15.23
2019-05-20T04:13:36.215Z,14.93
2019-05-20T04:16:05.333Z,15.60
2019-05-20T04:18:34.508Z,34.40
2019-05-20T04:21:03.763Z,39.17
2019-05-20T04:23:33.036Z,18.30
2019-05-20T04:26:02.065Z,15.03
2019-05-20T04:28:30.973Z,14.87
2019-05-20T04:31:00.028Z,14.80
2019-05-20T04:33:29.815Z,14.80
2019-05-20T04:35:59.121Z,14.67
2019-05-20T04:38:28.179Z,14.73
2019-05-20T04:40:57.292Z,16.30
2019-05-20T04:43:26.846Z,15.27
2019-05-20T04:45:56.271Z,15.57
2019-05-20T04:48:25.361Z,14.60
2019-05-20T04:50:54.452Z,14.60
2019-05-20T04:53:23.625Z,15.03
2019-05-20T04:55:52.700Z,15.40
2019-05-20T04:58:22.055Z,16.33
2019-05-20T05:00:53.201Z,15.43
2019-05-20T05:03:22.350Z,32.83
2019-05-20T05:05:52.046Z,20.40
2019-05-20T05:08:21.484Z,17.03
2019-05-20T05:10:51.571Z,15.23
2019-05-20T05:13:21.332Z,15.07
2019-05-20T05:15:51.049Z,14.57
2019-05-20T05:18:20.275Z,14.87
2019-05-20T05:20:49.444Z,15.23
2019-05-20T05:23:18.775Z,16.33
2019-05-20T05:25:47.829Z,15.43
2019-05-20T05:28:21.753Z,14.97
2019-05-20T05:30:51.163Z,15.10
2019-05-20T05:33:20.405Z,16.13
2019-05-20T05:35:53.529Z,20.17
2019-05-20T05:38:22.707Z,20.90
2019-05-20T05:40:51.825Z,18.10
2019-05-20T05:43:20.965Z,17.03
2019-05-20T05:45:53.463Z,48.40
2019-05-20T05:48:23.081Z,21.20
2019-05-20T05:50:52.374Z,17.03
2019-05-20T05:53:24.676Z,16.80
2019-05-20T05:55:54.049Z,15.13
2019-05-20T05:58:23.534Z,16.00
2019-05-20T06:00:52.801Z,15.13
2019-05-20T06:03:22.101Z,14.53
2019-05-20T06:05:51.167Z,15.33
2019-05-20T06:08:20.396Z,13.87
2019-05-20T06:10:50.982Z,18.93
2019-05-20T06:13:20.510Z,25.03
2019-05-20T06:15:49.928Z,15.53
2019-05-20T06:18:20.672Z,14.30
2019-05-20T06:20:50.267Z,13.73
2019-05-20T06:23:19.789Z,14.30
2019-05-20T06:25:48.792Z,14.67
2019-05-20T06:28:18.030Z,13.10
2019-05-20T06:30:47.552Z,13.33
2019-05-20T06:33:20.521Z,13.90
2019-05-20T06:35:50.000Z,14.00
2019-05-20T06:38:41.531Z,13.50
2019-05-20T06:41:10.683Z,13.07
2019-05-20T06:43:39.844Z,13.73
2019-05-20T06:46:09.056Z,13.20
2019-05-20T06:48:38.144Z,14.43
2019-05-20T06:51:07.538Z,14.17
2019-05-20T06:53:37.226Z,14.00
2019-05-20T06:56:06.349Z,13.87
2019-05-20T06:58:35.559Z,13.10
2019-05-20T07:01:04.950Z,13.17
2019-05-20T07:03:34.546Z,12.67
2019-05-20T07:06:06.929Z,12.67
2019-05-20T07:08:36.238Z,12.13
2019-05-20T07:11:05.689Z,12.30
2019-05-20T07:13:35.442Z,12.50
2019-05-20T07:16:05.682Z,12.63
2019-05-20T07:18:34.877Z,12.30
2019-05-20T07:21:04.196Z,11.17
2019-05-20T07:23:33.405Z,11.20
2019-05-20T07:26:02.755Z,11.00
2019-05-20T07:28:33.307Z,11.00
2019-05-20T07:31:02.661Z,11.50
2019-05-20T07:33:31.709Z,11.57
2019-05-20T07:36:01.059Z,11.43
2019-05-20T07:38:30.732Z,10.53
2019-05-20T07:41:00.965Z,10.23
2019-05-20T07:43:30.369Z,10.87
2019-05-20T07:46:00.175Z,11.30
2019-05-20T07:48:29.462Z,10.23
2019-05-20T07:50:59.236Z,10.73
2019-05-20T07:53:28.862Z,10.73
2019-05-20T07:56:12.109Z,10.37
2019-05-20T07:58:43.685Z,9.20
2019-05-20T08:01:12.972Z,10.00
2019-05-20T08:03:42.642Z,11.50
2019-05-20T08:06:12.037Z,12.27
2019-05-20T08:08:43.999Z,11.33
2019-05-20T08:11:16.111Z,9.37
2019-05-20T08:13:45.383Z,9.23
2019-05-20T08:16:14.671Z,9.67
2019-05-20T08:18:43.934Z,9.03
2019-05-20T08:21:13.395Z,9.20
2019-05-20T08:23:45.727Z,9.33
2019-05-20T08:26:14.918Z,8.50
2019-05-20T08:28:44.022Z,8.33
2019-05-20T08:31:13.271Z,8.37
2019-05-20T08:33:42.395Z,7.87
2019-05-20T08:36:12.948Z,8.67
2019-05-20T08:38:42.190Z,8.10
2019-05-20T08:41:11.366Z,8.00
2019-05-20T08:43:40.862Z,8.50
2019-05-20T08:46:10.106Z,7.97
2019-05-20T08:48:39.216Z,7.83
2019-05-20T08:51:09.853Z,10.40
2019-05-20T08:53:38.938Z,9.17
2019-05-20T08:56:10.239Z,7.90
2019-05-20T08:58:39.336Z,7.43
2019-05-20T09:01:10.234Z,8.93
2019-05-20T09:03:39.561Z,8.70
2019-05-20T09:06:09.242Z,7.83
2019-05-20T09:08:38.501Z,8.17
2019-05-20T09:11:07.969Z,8.30
2019-05-20T09:13:37.117Z,8.27
2019-05-20T09:16:06.573Z,8.57
2019-05-20T09:18:36.751Z,8.17
2019-05-20T09:21:07.020Z,7.27
2019-05-20T09:23:36.328Z,6.63
2019-05-20T09:26:05.687Z,6.77
2019-05-20T09:28:34.904Z,6.57
2019-05-20T09:31:04.677Z,8.10
2019-05-20T09:33:52.632Z,6.73
2019-05-20T09:36:22.017Z,6.23
2019-05-20T09:38:51.627Z,5.80
2019-05-20T09:41:39.167Z,7.77
2019-05-20T09:44:09.385Z,5.73
2019-05-20T09:46:44.357Z,7.97
2019-05-20T09:49:13.616Z,6.13
2019-05-20T09:51:43.395Z,5.57
2019-05-20T09:54:15.522Z,6.77
2019-05-20T09:56:44.756Z,6.77
2019-05-20T09:59:16.320Z,6.07
2019-05-20T10:01:44.928Z,5.97
2019-05-20T10:04:14.150Z,13.53
2019-05-20T10:06:43.609Z,8.97
2019-05-20T10:09:12.705Z,6.50
2019-05-20T10:11:41.907Z,5.23
2019-05-20T10:14:10.983Z,5.77
2019-05-20T10:16:40.262Z,6.43
2019-05-20T10:19:09.461Z,5.80
2019-05-20T10:21:38.782Z,6.87
2019-05-20T10:24:08.058Z,6.70
2019-05-20T10:26:37.420Z,6.10
2019-05-20T10:29:06.655Z,6.30
2019-05-20T10:31:35.814Z,6.17
2019-05-20T10:34:07.830Z,6.03
2019-05-20T10:36:37.171Z,5.17
2019-05-20T10:39:08.156Z,7.50
2019-05-20T10:41:58.726Z,9.60
2019-05-20T10:44:28.706Z,8.70
2019-05-20T10:46:58.386Z,7.60
2019-05-20T10:49:27.657Z,6.67
2019-05-20T10:51:56.879Z,6.30
2019-05-20T10:54:28.719Z,5.90
2019-05-20T10:56:59.749Z,5.67
2019-05-20T10:59:30.687Z,5.70
2019-05-20T11:02:00.196Z,9.93
2019-05-20T11:04:29.555Z,21.93
2019-05-20T11:06:59.182Z,14.03
2019-05-20T11:09:28.378Z,9.10
2019-05-20T11:11:57.531Z,6.80
2019-05-20T11:14:27.724Z,6.60
2019-05-20T11:16:56.930Z,6.43
2019-05-20T11:19:26.044Z,5.80
2019-05-20T11:21:55.372Z,6.33
2019-05-20T11:24:24.502Z,6.07
2019-05-20T11:26:53.626Z,14.20
2019-05-20T11:29:23.348Z,9.30
2019-05-20T11:31:53.025Z,6.43
2019-05-20T11:34:22.402Z,8.03
2019-05-20T11:36:53.754Z,6.20
2019-05-20T11:39:33.241Z,7.07
2019-05-20T11:41:54.644Z,7.37
2019-05-20T11:44:23.747Z,6.80
2019-05-20T11:46:53.337Z,7.57
2019-05-20T11:49:22.510Z,6.97
2019-05-20T11:51:51.740Z,6.33
2019-05-20T11:54:20.983Z,6.07
2019-05-20T11:56:50.082Z,7.53
2019-05-20T11:59:19.450Z,11.67
2019-05-20T12:01:48.455Z,9.47
2019-05-20T12:04:24.795Z,8.73
2019-05-20T12:06:51.873Z,8.23
2019-05-20T12:09:21.057Z,7.60
2019-05-20T12:11:50.399Z,7.07
2019-05-20T12:14:19.531Z,7.87
2019-05-20T12:16:48.626Z,11.40
2019-05-20T12:19:18.014Z,6.83
2019-05-20T12:21:47.428Z,7.13
2019-05-20T12:24:18.876Z,7.17
2019-05-20T12:26:51.019Z,9.77
2019-05-20T12:29:20.585Z,11.17
2019-05-20T12:31:52.953Z,8.63
2019-05-20T12:34:23.135Z,8.30
2019-05-20T12:36:52.894Z,6.53
2019-05-20T12:39:22.255Z,8.37
2019-05-20T12:41:51.534Z,7.90
2019-05-20T12:44:22.366Z,7.33
2019-05-20T12:46:51.675Z,6.30
2019-05-20T12:49:24.203Z,7.67
2019-05-20T12:51:54.608Z,9.60
2019-05-20T12:54:24.691Z,7.40
2019-05-20T12:56:54.070Z,6.50
2019-05-20T12:59:23.439Z,6.13
2019-05-20T13:01:52.591Z,5.77
2019-05-20T13:04:21.931Z,6.40
2019-05-20T13:06:51.070Z,7.10
2019-05-20T13:09:24.549Z,6.90
2019-05-20T13:11:54.056Z,23.43
2019-05-20T13:14:23.444Z,15.60
2019-05-20T13:16:52.698Z,7.97
2019-05-20T13:19:22.375Z,7.03
2019-05-20T13:21:52.263Z,6.73
2019-05-20T13:24:21.523Z,6.23
2019-05-20T13:26:56.287Z,8.20
2019-05-20T13:29:25.631Z,7.57
2019-05-20T13:31:55.072Z,7.10
2019-05-20T13:34:24.456Z,8.67
2019-05-20T13:36:53.785Z,6.23
2019-05-20T13:39:23.144Z,7.53
2019-05-20T13:41:52.241Z,7.03
2019-05-20T13:44:21.407Z,7.90
2019-05-20T13:46:51.889Z,6.80
2019-05-20T13:49:21.011Z,6.87
2019-05-20T13:51:50.108Z,7.97
2019-05-20T13:54:19.478Z,7.97
2019-05-20T13:56:49.030Z,10.80
2019-05-20T13:59:18.268Z,16.13
2019-05-20T14:01:50.777Z,10.40
2019-05-20T14:04:45.084Z,9.53
2019-05-20T14:07:14.352Z,7.97
2019-05-20T14:09:45.601Z,7.83
2019-05-20T14:12:14.913Z,8.83
2019-05-20T14:14:44.142Z,8.00
2019-05-20T14:17:15.031Z,7.17
2019-05-20T14:19:46.344Z,7.90
2019-05-20T14:22:19.479Z,8.27
2019-05-20T14:24:55.277Z,8.87
2019-05-20T14:27:24.556Z,11.07
2019-05-20T14:29:53.889Z,10.30
2019-05-20T14:32:27.910Z,8.90
2019-05-20T14:34:57.847Z,8.53
2019-05-20T14:37:27.693Z,9.93
2019-05-20T14:39:59.939Z,10.03
2019-05-20T14:42:29.058Z,9.53
2019-05-20T14:45:01.800Z,9.77
2019-05-20T14:47:32.347Z,9.73
2019-05-20T14:50:08.670Z,10.17
2019-05-20T14:52:54.026Z,13.33
2019-05-20T14:55:27.641Z,10.97
2019-05-20T14:57:58.978Z,12.90
2019-05-20T15:00:36.541Z,11.93
2019-05-20T15:03:10.096Z,11.70
2019-05-20T15:05:41.992Z,11.37
2019-05-20T15:08:11.730Z,12.27
2019-05-20T15:10:42.365Z,11.93
2019-05-20T15:13:16.702Z,13.10
2019-05-20T15:15:48.353Z,13.07
2019-05-20T15:18:21.468Z,13.30
2019-05-20T15:20:51.267Z,13.87
2019-05-20T15:23:24.499Z,13.33
2019-05-20T15:25:54.143Z,12.83
2019-05-20T15:28:26.764Z,11.60
2019-05-20T15:30:56.690Z,14.80
2019-05-20T15:33:27.978Z,6.83
2019-05-20T15:35:57.069Z,6.50
2019-05-20T15:38:26.369Z,6.80
2019-05-20T15:40:55.507Z,8.77
2019-05-20T15:43:24.751Z,7.37
2019-05-20T15:45:54.347Z,8.40
2019-05-20T15:48:23.680Z,10.43
2019-05-20T15:50:52.919Z,12.33
2019-05-20T15:53:22.230Z,11.87
2019-05-20T15:55:53.030Z,11.93
2019-05-20T15:58:23.882Z,10.73
2019-05-20T16:00:54.377Z,10.87
2019-05-20T16:03:23.958Z,11.67
2019-05-20T16:05:53.630Z,9.37
2019-05-20T16:08:23.109Z,12.20
2019-05-20T16:10:52.715Z,9.10
2019-05-20T16:13:22.374Z,14.60
2019-05-20T16:15:51.676Z,12.17
2019-05-20T16:18:21.502Z,10.93
2019-05-20T16:20:51.404Z,12.40
2019-05-20T16:23:21.529Z,10.43
2019-05-20T16:25:53.004Z,10.03
2019-05-20T16:28:22.343Z,9.77
2019-05-20T16:30:52.755Z,9.63
2019-05-20T16:33:22.290Z,10.40
2019-05-20T16:35:52.061Z,9.20
2019-05-20T16:38:21.936Z,9.63
2019-05-20T16:40:51.471Z,10.63
2019-05-20T16:43:20.946Z,10.60
2019-05-20T16:45:50.264Z,11.40
2019-05-20T16:48:22.596Z,10.73
2019-05-20T16:50:52.407Z,12.10
2019-05-20T16:53:21.869Z,13.00
2019-05-20T16:55:51.512Z,10.47
2019-05-20T16:58:59.678Z,9.87
2019-05-20T17:01:29.328Z,23.67
2019-05-20T17:04:00.055Z,14.40
2019-05-20T17:07:05.873Z,17.40
2019-05-20T17:09:35.454Z,13.43
2019-05-20T17:12:07.237Z,13.53
2019-05-20T17:14:36.626Z,13.73
2019-05-20T17:17:06.385Z,13.63
2019-05-20T17:19:35.576Z,15.07
2019-05-20T17:22:05.676Z,15.93
2019-05-20T17:24:34.863Z,15.57
2019-05-20T17:27:04.134Z,16.00
2019-05-20T17:29:36.178Z,15.30
2019-05-20T17:32:05.605Z,16.10
2019-05-20T17:34:34.876Z,13.93
2019-05-20T17:37:04.591Z,14.63
2019-05-20T17:39:35.877Z,13.53
2019-05-20T17:42:44.053Z,14.17
2019-05-20T17:45:16.706Z,14.60
2019-05-20T17:47:46.131Z,12.57
2019-05-20T17:50:16.540Z,13.90
2019-05-20T17:52:46.604Z,13.73
2019-05-20T17:55:16.088Z,14.40
2019-05-20T17:57:45.306Z,13.37
2019-05-20T18:00:19.216Z,11.97
2019-05-20T18:02:48.416Z,11.83
2019-05-20T18:05:18.977Z,11.83
2019-05-20T18:07:48.680Z,13.67
2019-05-20T18:10:24.201Z,11.97
2019-05-20T18:12:54.553Z,11.00
2019-05-20T18:15:23.982Z,13.27
2019-05-20T18:17:53.675Z,11.50
2019-05-20T18:20:23.160Z,11.63
2019-05-20T18:22:54.244Z,11.63
2019-05-20T18:25:23.858Z,12.50
2019-05-20T18:27:53.582Z,11.23
2019-05-20T18:30:25.217Z,11.87
2019-05-20T18:32:55.213Z,12.37
2019-05-20T18:35:37.280Z,12.20
2019-05-20T18:38:08.162Z,13.87
2019-05-20T18:40:37.889Z,13.10
2019-05-20T18:43:08.840Z,15.17
2019-05-20T18:45:38.246Z,13.47
2019-05-20T18:48:08.061Z,18.00
2019-05-20T18:50:37.597Z,17.33
2019-05-20T18:53:07.638Z,14.03
2019-05-20T18:55:39.169Z,14.67
2019-05-20T18:58:08.713Z,14.97
2019-05-20T19:00:38.104Z,15.60
2019-05-20T19:03:07.527Z,15.87
2019-05-20T19:05:36.893Z,15.97
2019-05-20T19:08:09.223Z,15.80
2019-05-20T19:10:38.708Z,16.83
2019-05-20T19:13:20.210Z,16.27
2019-05-20T19:15:53.232Z,16.77
2019-05-20T19:18:35.910Z,17.97
2019-05-20T19:21:08.478Z,16.77
2019-05-20T19:23:37.757Z,16.90
2019-05-20T19:26:07.117Z,15.67
2019-05-20T19:28:36.259Z,17.07
2019-05-20T19:31:07.957Z,17.83
2019-05-20T19:33:36.930Z,17.93
2019-05-20T19:36:06.095Z,18.10
2019-05-20T19:42:13.172Z,21.20
2019-05-20T19:44:42.337Z,21.37
2019-05-20T19:47:11.616Z,26.03
2019-05-20T19:49:42.550Z,27.63
2019-05-20T19:52:11.646Z,30.23
2019-05-20T19:54:40.916Z,44.23
2019-05-20T19:57:29.673Z,34.57
2019-05-20T20:00:34.956Z,26.87
2019-05-20T20:03:04.478Z,19.60
2019-05-20T20:05:36.237Z,15.97
2019-05-20T20:08:05.871Z,13.80
2019-05-20T20:10:35.117Z,12.13
2019-05-20T20:13:04.272Z,12.03
2019-05-20T20:15:33.743Z,11.70
2019-05-20T20:18:03.084Z,13.17
2019-05-20T20:20:33.721Z,11.90
2019-05-20T20:23:05.023Z,13.63
2019-05-20T20:25:34.208Z,11.63
2019-05-20T20:28:03.437Z,11.67
2019-05-20T20:30:39.171Z,11.20
2019-05-20T20:33:11.242Z,12.37
2019-05-20T20:35:40.929Z,15.03
2019-05-20T20:38:10.085Z,14.00
2019-05-20T20:40:39.324Z,14.93
2019-05-20T20:43:08.627Z,13.13
2019-05-20T20:45:40.463Z,12.50
2019-05-20T20:48:31.186Z,13.33
2019-05-20T20:51:02.621Z,14.90
2019-05-20T20:53:38.739Z,12.53
2019-05-20T21:03:17.937Z,11.27
2019-05-20T21:05:54.430Z,11.53
2019-05-20T21:09:28.160Z,11.40
2019-05-20T21:12:02.918Z,11.20
2019-05-20T21:14:36.693Z,11.30
2019-05-20T21:17:16.459Z,11.17
2019-05-20T21:19:46.179Z,12.43
2019-05-20T21:22:18.285Z,10.53
2019-05-20T21:24:49.044Z,11.10
2019-05-20T21:27:19.638Z,10.43
2019-05-20T21:29:50.382Z,10.57
2019-05-20T21:32:20.744Z,10.70
2019-05-20T21:34:50.259Z,9.80
2019-05-20T21:37:22.065Z,9.37
2019-05-20T21:39:52.720Z,9.63
2019-05-20T21:42:28.607Z,9.90
2019-05-20T21:44:57.783Z,10.20
2019-05-20T21:47:27.625Z,9.27
2019-05-20T21:49:58.178Z,10.60
2019-05-20T21:52:28.087Z,11.47
2019-05-20T21:54:57.556Z,10.80
2019-05-20T21:57:28.554Z,10.23
2019-05-20T22:00:15.732Z,9.83
2019-05-20T22:02:46.048Z,10.50
2019-05-20T22:05:19.174Z,10.63
2019-05-20T22:07:48.423Z,11.10
2019-05-20T22:10:17.944Z,11.13
2019-05-20T22:12:47.210Z,11.00
2019-05-20T22:15:18.832Z,11.87
2019-05-20T22:17:48.103Z,10.90
2019-05-20T22:20:17.641Z,11.77
2019-05-20T22:22:52.458Z,11.90
2019-05-20T22:25:21.634Z,11.30
2019-05-20T22:27:50.738Z,11.13
2019-05-20T22:30:19.924Z,10.27
2019-05-20T22:33:42.756Z,10.80
2019-05-20T22:36:11.954Z,10.87
2019-05-20T22:38:41.036Z,11.43
2019-05-20T22:41:10.333Z,11.17
2019-05-20T22:43:39.350Z,10.70
2019-05-20T22:46:08.381Z,11.67
2019-05-20T22:48:37.384Z,11.90
2019-05-20T22:51:06.843Z,11.80
2019-05-20T22:53:35.874Z,11.60
2019-05-20T22:56:04.856Z,10.80
2019-05-20T22:58:34.160Z,10.77
2019-05-20T23:01:03.204Z,10.50
2019-05-20T23:03:32.438Z,10.67
2019-05-20T23:06:01.705Z,11.23
2019-05-20T23:08:30.832Z,11.93
2019-05-20T23:11:00.095Z,11.13
2019-05-20T23:13:29.105Z,11.20
2019-05-20T23:15:58.035Z,11.17
2019-05-20T23:18:27.097Z,11.40
2019-05-20T23:20:56.009Z,11.57
2019-05-20T23:23:25.080Z,12.70
2019-05-20T23:25:54.047Z,12.03
2019-05-20T23:28:23.145Z,12.53
2019-05-20T23:30:52.063Z,13.67
2019-05-20T23:33:20.961Z,12.57
2019-05-20T23:35:49.931Z,13.33
2019-05-20T23:38:18.970Z,13.43
2019-05-20T23:40:48.056Z,13.50
2019-05-20T23:43:17.163Z,12.33
2019-05-20T23:45:46.294Z,11.97
2019-05-20T23:48:15.385Z,12.23
2019-05-20T23:50:44.406Z,11.83
2019-05-20T23:53:13.335Z,11.93
2019-05-20T23:55:42.304Z,12.30
2019-05-20T23:58:11.384Z,12.33
